PWSweather.com
Personal Weather Stations
Station Observations
WUFYI1828
Erie, CO

Erie, CO

Lat: 40.03382874, Lon: -105.04464722

Elevation: 5212

Station Type:

High Low Average
Temperature 55.6°F13.1°C 29.3°F-1.5°C 45.0°F7.2°C
Dew Point 28.8°F-1.8°C 18.9°F-7.3°C 23.9°F-4.5°C
Winds 6.9 mph 11.1 kmh Calm Calm 1.0 mph SSE1.6 kmh SSE
Wind Gusts 9.2 mph14.8 kmh -- 2.0 mph3.2 kmh
Humidity 79% 26% 44%
Pressure 29.93 in1013.5 mb 29.65 in1004.1 mb -
Precipitation 0.00 in0.0 mm - -
Hour Temp Dew Point Humidity Winds Wind Gusts Pressure Precip Precip Rate Daily Precip Total
12:04 AM 30.4°F-0.9°C 24.3°F-4.3°C 78% Calm Calm -- 29.93 in1013.5 mb 0.00 in0.0 mm 0.00 in0.0 mm 0.00 in0.0 mm
12:09 AM 30.4°F-0.9°C 24.3°F-4.3°C 78% Calm Calm -- 29.93 in1013.5 mb 0.00 in0.0 mm 0.00 in0.0 mm 0.00 in0.0 mm
12:14 AM 30.4°F-0.9°C 24.3°F-4.3°C 78% 0.2 mph NW0.3 kmh NW 1.1 mph1.8 kmh 29.93 in1013.5 mb 0.00 in0.0 mm 0.00 in0.0 mm 0.00 in0.0 mm
12:19 AM 29.3°F-1.5°C 23.5°F-4.7°C 79% Calm Calm -- 29.93 in1013.5 mb 0.00 in0.0 mm 0.00 in0.0 mm 0.00 in0.0 mm
12:24 AM 29.8°F-1.2°C 23.2°F-4.9°C 76% Calm Calm -- 29.93 in1013.5 mb 0.00 in0.0 mm 0.00 in0.0 mm 0.00 in0.0 mm
12:29 AM 30.9°F-0.6°C 23.9°F-4.5°C 75% Calm Calm -- 29.92 in1013.2 mb 0.00 in0.0 mm 0.00 in0.0 mm 0.00 in0.0 mm
12:34 AM 31.3°F-0.4°C 23.9°F-4.5°C 74% Calm Calm -- 29.93 in1013.5 mb 0.00 in0.0 mm 0.00 in0.0 mm 0.00 in0.0 mm
12:39 AM 31.5°F-0.3°C 22.8°F-5.1°C 70% Calm Calm -- 29.91 in1012.9 mb 0.00 in0.0 mm 0.00 in0.0 mm 0.00 in0.0 mm
12:44 AM 37.8°F3.2°C 21.2°F-6.0°C 51% 2.5 mph SW4.0 kmh SW 3.4 mph5.5 kmh 29.92 in1013.2 mb 0.00 in0.0 mm 0.00 in0.0 mm 0.00 in0.0 mm
12:49 AM 41.2°F5.1°C 21.9°F-5.6°C 46% 6.3 mph SW10.1 kmh SW 9.2 mph14.8 kmh 29.92 in1013.2 mb 0.00 in0.0 mm 0.00 in0.0 mm 0.00 in0.0 mm
12:54 AM 42.4°F5.8°C 22.6°F-5.2°C 45% 1.8 mph SW2.9 kmh SW 2.2 mph3.5 kmh 29.92 in1013.2 mb 0.00 in0.0 mm 0.00 in0.0 mm 0.00 in0.0 mm
12:59 AM 42.8°F6.0°C 21.4°F-5.9°C 42% 5.1 mph SW8.2 kmh SW 6.9 mph11.1 kmh 29.92 in1013.2 mb 0.00 in0.0 mm 0.00 in0.0 mm 0.00 in0.0 mm
01:04 AM 43.3°F6.3°C 21.7°F-5.7°C 42% 2.9 mph SSW4.7 kmh SSW 4.5 mph7.2 kmh 29.92 in1013.2 mb 0.00 in0.0 mm 0.00 in0.0 mm 0.00 in0.0 mm
01:09 AM 42.3°F5.7°C 21.9°F-5.6°C 44% 5.4 mph SW8.7 kmh SW 8.1 mph13.0 kmh 29.91 in1012.9 mb 0.00 in0.0 mm 0.00 in0.0 mm 0.00 in0.0 mm
01:14 AM 42.1°F5.6°C 22.3°F-5.4°C 45% 1.6 mph SW2.6 kmh SW 3.4 mph5.5 kmh 29.92 in1013.2 mb 0.00 in0.0 mm 0.00 in0.0 mm 0.00 in0.0 mm
01:19 AM 41.7°F5.4°C 21.4°F-5.9°C 44% 1.8 mph SSW2.9 kmh SSW 3.4 mph5.5 kmh 29.91 in1012.9 mb 0.00 in0.0 mm 0.00 in0.0 mm 0.00 in0.0 mm
01:24 AM 42.6°F5.9°C 20.5°F-6.4°C 41% 3.6 mph SW5.8 kmh SW 4.5 mph7.2 kmh 29.92 in1013.2 mb 0.00 in0.0 mm 0.00 in0.0 mm 0.00 in0.0 mm
01:29 AM 43.7°F6.5°C 20.3°F-6.5°C 39% 3.6 mph SW5.8 kmh SW 5.8 mph9.3 kmh 29.92 in1013.2 mb 0.00 in0.0 mm 0.00 in0.0 mm 0.00 in0.0 mm
01:34 AM 44.6°F7.0°C 20.7°F-6.3°C 38% 2.0 mph SW3.2 kmh SW 3.4 mph5.5 kmh 29.93 in1013.5 mb 0.00 in0.0 mm 0.00 in0.0 mm 0.00 in0.0 mm
01:39 AM 44.1°F6.7°C 20.7°F-6.3°C 39% 1.8 mph SSW2.9 kmh SSW 2.2 mph3.5 kmh 29.92 in1013.2 mb 0.00 in0.0 mm 0.00 in0.0 mm 0.00 in0.0 mm
01:44 AM 43.9°F6.6°C 20.5°F-6.4°C 39% 3.4 mph SW5.5 kmh SW 4.5 mph7.2 kmh 29.93 in1013.5 mb 0.00 in0.0 mm 0.00 in0.0 mm 0.00 in0.0 mm
01:49 AM 43.5°F6.4°C 20.8°F-6.2°C 40% 2.9 mph SW4.7 kmh SW 3.4 mph5.5 kmh 29.93 in1013.5 mb 0.00 in0.0 mm 0.00 in0.0 mm 0.00 in0.0 mm
01:54 AM 43.0°F6.1°C 20.8°F-6.2°C 41% 2.7 mph WSW4.3 kmh WSW 3.4 mph5.5 kmh 29.92 in1013.2 mb 0.00 in0.0 mm 0.00 in0.0 mm 0.00 in0.0 mm
01:59 AM 42.8°F6.0°C 20.1°F-6.6°C 40% 4.9 mph WSW7.9 kmh WSW 5.8 mph9.3 kmh 29.92 in1013.2 mb 0.00 in0.0 mm 0.00 in0.0 mm 0.00 in0.0 mm
02:04 AM 43.5°F6.4°C 19.6°F-6.9°C 38% 3.4 mph SW5.5 kmh SW 4.5 mph7.2 kmh 29.92 in1013.2 mb 0.00 in0.0 mm 0.00 in0.0 mm 0.00 in0.0 mm
02:09 AM 43.7°F6.5°C 19.8°F-6.8°C 38% 3.1 mph SW5.0 kmh SW 4.5 mph7.2 kmh 29.93 in1013.5 mb 0.00 in0.0 mm 0.00 in0.0 mm 0.00 in0.0 mm
02:14 AM 43.7°F6.5°C 19.0°F-7.2°C 37% 2.2 mph SW3.5 kmh SW 3.4 mph5.5 kmh 29.93 in1013.5 mb 0.00 in0.0 mm 0.00 in0.0 mm 0.00 in0.0 mm
02:19 AM 44.4°F6.9°C 19.2°F-7.1°C 36% 0.7 mph SW1.1 kmh SW 2.2 mph3.5 kmh 29.92 in1013.2 mb 0.00 in0.0 mm 0.00 in0.0 mm 0.00 in0.0 mm
02:24 AM 44.8°F7.1°C 18.9°F-7.3°C 35% 6.9 mph SW11.1 kmh SW 9.2 mph14.8 kmh 29.93 in1013.5 mb 0.00 in0.0 mm 0.00 in0.0 mm 0.00 in0.0 mm
02:29 AM 44.2°F6.8°C 19.6°F-6.9°C 37% 1.8 mph SW2.9 kmh SW 2.2 mph3.5 kmh 29.92 in1013.2 mb 0.00 in0.0 mm 0.00 in0.0 mm 0.00 in0.0 mm
02:34 AM 43.7°F6.5°C 19.8°F-6.8°C 38% 2.2 mph SW3.5 kmh SW 3.4 mph5.5 kmh 29.92 in1013.2 mb 0.00 in0.0 mm 0.00 in0.0 mm 0.00 in0.0 mm
02:39 AM 43.0°F6.1°C 20.3°F-6.5°C 40% Calm Calm -- 29.93 in1013.5 mb 0.00 in0.0 mm 0.00 in0.0 mm 0.00 in0.0 mm
02:44 AM 41.4°F5.2°C 21.0°F-6.1°C 44% Calm Calm -- 29.92 in1013.2 mb 0.00 in0.0 mm 0.00 in0.0 mm 0.00 in0.0 mm
02:49 AM 39.6°F4.2°C 21.0°F-6.1°C 47% Calm Calm -- 29.92 in1013.2 mb 0.00 in0.0 mm 0.00 in0.0 mm 0.00 in0.0 mm
02:54 AM 38.5°F3.6°C 21.0°F-6.1°C 49% Calm Calm -- 29.92 in1013.2 mb 0.00 in0.0 mm 0.00 in0.0 mm 0.00 in0.0 mm
02:59 AM 37.9°F3.3°C 21.0°F-6.1°C 50% 1.8 mph SSW2.9 kmh SSW 2.2 mph3.5 kmh 29.92 in1013.2 mb 0.00 in0.0 mm 0.00 in0.0 mm 0.00 in0.0 mm
03:04 AM 37.6°F3.1°C 20.7°F-6.3°C 50% Calm Calm -- 29.93 in1013.5 mb 0.00 in0.0 mm 0.00 in0.0 mm 0.00 in0.0 mm
03:09 AM 37.8°F3.2°C 20.3°F-6.5°C 49% Calm Calm -- 29.91 in1012.9 mb 0.00 in0.0 mm 0.00 in0.0 mm 0.00 in0.0 mm
03:14 AM 37.0°F2.8°C 21.6°F-5.8°C 53% Calm Calm -- 29.91 in1012.9 mb 0.00 in0.0 mm 0.00 in0.0 mm 0.00 in0.0 mm
03:19 AM 35.6°F2.0°C 21.4°F-5.9°C 56% 2.2 mph SW3.5 kmh SW 2.2 mph3.5 kmh 29.92 in1013.2 mb 0.00 in0.0 mm 0.00 in0.0 mm 0.00 in0.0 mm
03:24 AM 35.6°F2.0°C 21.9°F-5.6°C 57% 0.2 mph SW0.3 kmh SW 1.1 mph1.8 kmh 29.92 in1013.2 mb 0.00 in0.0 mm 0.00 in0.0 mm 0.00 in0.0 mm
03:29 AM 35.4°F1.9°C 22.1°F-5.5°C 58% 0.7 mph SSE1.1 kmh SSE 1.1 mph1.8 kmh 29.91 in1012.9 mb 0.00 in0.0 mm 0.00 in0.0 mm 0.00 in0.0 mm
03:34 AM 34.0°F1.1°C 21.9°F-5.6°C 61% Calm Calm -- 29.92 in1013.2 mb 0.00 in0.0 mm 0.00 in0.0 mm 0.00 in0.0 mm
03:39 AM 34.0°F1.1°C 21.9°F-5.6°C 61% Calm Calm -- 29.91 in1012.9 mb 0.00 in0.0 mm 0.00 in0.0 mm 0.00 in0.0 mm
03:44 AM 33.3°F0.7°C 21.6°F-5.8°C 62% 1.3 mph E2.1 kmh E 2.2 mph3.5 kmh 29.91 in1012.9 mb 0.00 in0.0 mm 0.00 in0.0 mm 0.00 in0.0 mm
03:49 AM 33.6°F0.9°C 20.3°F-6.5°C 58% 0.2 mph N0.3 kmh N 1.1 mph1.8 kmh 29.91 in1012.9 mb 0.00 in0.0 mm 0.00 in0.0 mm 0.00 in0.0 mm
03:54 AM 34.7°F1.5°C 21.4°F-5.9°C 58% 0.7 mph SE1.1 kmh SE 1.1 mph1.8 kmh 29.91 in1012.9 mb 0.00 in0.0 mm 0.00 in0.0 mm 0.00 in0.0 mm
03:59 AM 35.4°F1.9°C 21.7°F-5.7°C 57% Calm Calm -- 29.91 in1012.9 mb 0.00 in0.0 mm 0.00 in0.0 mm 0.00 in0.0 mm
04:04 AM 35.1°F1.7°C 21.4°F-5.9°C 57% Calm Calm -- 29.91 in1012.9 mb 0.00 in0.0 mm 0.00 in0.0 mm 0.00 in0.0 mm
04:09 AM 34.5°F1.4°C 20.8°F-6.2°C 57% Calm Calm -- 29.91 in1012.9 mb 0.00 in0.0 mm 0.00 in0.0 mm 0.00 in0.0 mm
04:14 AM 34.9°F1.6°C 20.8°F-6.2°C 56% Calm Calm -- 29.91 in1012.9 mb 0.00 in0.0 mm 0.00 in0.0 mm 0.00 in0.0 mm
04:19 AM 35.4°F1.9°C 20.8°F-6.2°C 55% 0.2 mph SE0.3 kmh SE 1.1 mph1.8 kmh 29.90 in1012.5 mb 0.00 in0.0 mm 0.00 in0.0 mm 0.00 in0.0 mm
04:24 AM 36.1°F2.3°C 20.1°F-6.6°C 52% 1.3 mph E2.1 kmh E 2.2 mph3.5 kmh 29.90 in1012.5 mb 0.00 in0.0 mm 0.00 in0.0 mm 0.00 in0.0 mm
04:29 AM 37.4°F3.0°C 21.0°F-6.1°C 51% 0.2 mph SE0.3 kmh SE 1.1 mph1.8 kmh 29.90 in1012.5 mb 0.00 in0.0 mm 0.00 in0.0 mm 0.00 in0.0 mm
04:34 AM 37.9°F3.3°C 20.5°F-6.4°C 49% Calm Calm -- 29.89 in1012.2 mb 0.00 in0.0 mm 0.00 in0.0 mm 0.00 in0.0 mm
04:39 AM 38.3°F3.5°C 20.3°F-6.5°C 48% Calm Calm -- 29.90 in1012.5 mb 0.00 in0.0 mm 0.00 in0.0 mm 0.00 in0.0 mm
04:44 AM 37.9°F3.3°C 21.4°F-5.9°C 51% Calm Calm -- 29.89 in1012.2 mb 0.00 in0.0 mm 0.00 in0.0 mm 0.00 in0.0 mm
04:49 AM 37.2°F2.9°C 21.7°F-5.7°C 53% Calm Calm -- 29.89 in1012.2 mb 0.00 in0.0 mm 0.00 in0.0 mm 0.00 in0.0 mm
04:54 AM 38.1°F3.4°C 20.7°F-6.3°C 49% 1.1 mph S1.8 kmh S 1.1 mph1.8 kmh 29.89 in1012.2 mb 0.00 in0.0 mm 0.00 in0.0 mm 0.00 in0.0 mm
04:59 AM 39.6°F4.2°C 20.5°F-6.4°C 46% 1.3 mph S2.1 kmh S 2.2 mph3.5 kmh 29.89 in1012.2 mb 0.00 in0.0 mm 0.00 in0.0 mm 0.00 in0.0 mm
05:04 AM 40.6°F4.8°C 20.5°F-6.4°C 44% 1.8 mph SSE2.9 kmh SSE 3.4 mph5.5 kmh 29.89 in1012.2 mb 0.00 in0.0 mm 0.00 in0.0 mm 0.00 in0.0 mm
05:09 AM 40.6°F4.8°C 22.5°F-5.3°C 48% 2.5 mph SW4.0 kmh SW 3.4 mph5.5 kmh 29.89 in1012.2 mb 0.00 in0.0 mm 0.00 in0.0 mm 0.00 in0.0 mm
05:14 AM 38.8°F3.8°C 21.4°F-5.9°C 49% 1.6 mph S2.6 kmh S 2.2 mph3.5 kmh 29.88 in1011.9 mb 0.00 in0.0 mm 0.00 in0.0 mm 0.00 in0.0 mm
05:19 AM 38.7°F3.7°C 21.6°F-5.8°C 50% 0.7 mph SSE1.1 kmh SSE 2.2 mph3.5 kmh 29.87 in1011.5 mb 0.00 in0.0 mm 0.00 in0.0 mm 0.00 in0.0 mm
05:24 AM 38.3°F3.5°C 21.2°F-6.0°C 50% 1.3 mph SSW2.1 kmh SSW 3.4 mph5.5 kmh 29.87 in1011.5 mb 0.00 in0.0 mm 0.00 in0.0 mm 0.00 in0.0 mm
05:29 AM 38.7°F3.7°C 21.2°F-6.0°C 49% 2.9 mph SSW4.7 kmh SSW 3.4 mph5.5 kmh 29.88 in1011.9 mb 0.00 in0.0 mm 0.00 in0.0 mm 0.00 in0.0 mm
05:34 AM 37.8°F3.2°C 20.8°F-6.2°C 50% 1.1 mph S1.8 kmh S 2.2 mph3.5 kmh 29.89 in1012.2 mb 0.00 in0.0 mm 0.00 in0.0 mm 0.00 in0.0 mm
05:39 AM 37.9°F3.3°C 20.5°F-6.4°C 49% 1.8 mph S2.9 kmh S 3.4 mph5.5 kmh 29.89 in1012.2 mb 0.00 in0.0 mm 0.00 in0.0 mm 0.00 in0.0 mm
05:44 AM 38.5°F3.6°C 19.9°F-6.7°C 47% 0.7 mph NW1.1 kmh NW 3.4 mph5.5 kmh 29.89 in1012.2 mb 0.00 in0.0 mm 0.00 in0.0 mm 0.00 in0.0 mm
05:49 AM 38.7°F3.7°C 20.1°F-6.6°C 47% 0.9 mph E1.4 kmh E 2.2 mph3.5 kmh 29.89 in1012.2 mb 0.00 in0.0 mm 0.00 in0.0 mm 0.00 in0.0 mm
05:54 AM 38.8°F3.8°C 19.8°F-6.8°C 46% Calm Calm -- 29.89 in1012.2 mb 0.00 in0.0 mm 0.00 in0.0 mm 0.00 in0.0 mm
05:59 AM 37.8°F3.2°C 19.8°F-6.8°C 48% 1.8 mph SE2.9 kmh SE 3.4 mph5.5 kmh 29.89 in1012.2 mb 0.00 in0.0 mm 0.00 in0.0 mm 0.00 in0.0 mm
06:04 AM 38.3°F3.5°C 20.3°F-6.5°C 48% 0.4 mph E0.6 kmh E 1.1 mph1.8 kmh 29.90 in1012.5 mb 0.00 in0.0 mm 0.00 in0.0 mm 0.00 in0.0 mm
06:09 AM 37.8°F3.2°C 20.3°F-6.5°C 49% 1.1 mph NE1.8 kmh NE 1.1 mph1.8 kmh 29.90 in1012.5 mb 0.00 in0.0 mm 0.00 in0.0 mm 0.00 in0.0 mm
06:14 AM 36.3°F2.4°C 20.3°F-6.5°C 52% Calm Calm -- 29.90 in1012.5 mb 0.00 in0.0 mm 0.00 in0.0 mm 0.00 in0.0 mm
06:19 AM 36.3°F2.4°C 19.4°F-7.0°C 50% Calm Calm -- 29.90 in1012.5 mb 0.00 in0.0 mm 0.00 in0.0 mm 0.00 in0.0 mm
06:24 AM 36.5°F2.5°C 19.6°F-6.9°C 50% 1.1 mph NE1.8 kmh NE 1.1 mph1.8 kmh 29.91 in1012.9 mb 0.00 in0.0 mm 0.00 in0.0 mm 0.00 in0.0 mm
06:29 AM 36.3°F2.4°C 19.4°F-7.0°C 50% 0.2 mph N0.3 kmh N 1.1 mph1.8 kmh 29.90 in1012.5 mb 0.00 in0.0 mm 0.00 in0.0 mm 0.00 in0.0 mm
06:34 AM 36.3°F2.4°C 19.0°F-7.2°C 49% 0.9 mph NW1.4 kmh NW 1.1 mph1.8 kmh 29.89 in1012.2 mb 0.00 in0.0 mm 0.00 in0.0 mm 0.00 in0.0 mm
06:39 AM 34.5°F1.4°C 19.2°F-7.1°C 53% 0.2 mph E0.3 kmh E 1.1 mph1.8 kmh 29.89 in1012.2 mb 0.00 in0.0 mm 0.00 in0.0 mm 0.00 in0.0 mm
06:44 AM 35.2°F1.8°C 18.9°F-7.3°C 51% 1.3 mph SW2.1 kmh SW 2.2 mph3.5 kmh 29.89 in1012.2 mb 0.00 in0.0 mm 0.00 in0.0 mm 0.00 in0.0 mm
06:49 AM 35.8°F2.1°C 19.4°F-7.0°C 51% 0.9 mph SSW1.4 kmh SSW 1.1 mph1.8 kmh 29.90 in1012.5 mb 0.00 in0.0 mm 0.00 in0.0 mm 0.00 in0.0 mm
06:54 AM 34.9°F1.6°C 19.4°F-7.0°C 53% Calm Calm -- 29.89 in1012.2 mb 0.00 in0.0 mm 0.00 in0.0 mm 0.00 in0.0 mm
06:59 AM 35.6°F2.0°C 19.8°F-6.8°C 52% 0.9 mph WSW1.4 kmh WSW 2.2 mph3.5 kmh 29.89 in1012.2 mb 0.00 in0.0 mm 0.00 in0.0 mm 0.00 in0.0 mm
07:04 AM 37.8°F3.2°C 20.3°F-6.5°C 49% 0.2 mph SSW0.3 kmh SSW 1.1 mph1.8 kmh 29.89 in1012.2 mb 0.00 in0.0 mm 0.00 in0.0 mm 0.00 in0.0 mm
07:09 AM 38.7°F3.7°C 20.7°F-6.3°C 48% Calm Calm -- 29.89 in1012.2 mb 0.00 in0.0 mm 0.00 in0.0 mm 0.00 in0.0 mm
07:14 AM 39.4°F4.1°C 19.8°F-6.8°C 45% 0.9 mph SW1.4 kmh SW 1.1 mph1.8 kmh 29.90 in1012.5 mb 0.00 in0.0 mm 0.00 in0.0 mm 0.00 in0.0 mm
07:19 AM 39.9°F4.4°C 20.3°F-6.5°C 45% 0.7 mph S1.1 kmh S 1.1 mph1.8 kmh 29.89 in1012.2 mb 0.00 in0.0 mm 0.00 in0.0 mm 0.00 in0.0 mm
07:24 AM 39.6°F4.2°C 20.5°F-6.4°C 46% 0.7 mph S1.1 kmh S 1.1 mph1.8 kmh 29.89 in1012.2 mb 0.00 in0.0 mm 0.00 in0.0 mm 0.00 in0.0 mm
07:29 AM 38.8°F3.8°C 20.3°F-6.5°C 47% 0.2 mph SE0.3 kmh SE 1.1 mph1.8 kmh 29.89 in1012.2 mb 0.00 in0.0 mm 0.00 in0.0 mm 0.00 in0.0 mm
07:34 AM 38.7°F3.7°C 20.7°F-6.3°C 48% 1.1 mph S1.8 kmh S 1.1 mph1.8 kmh 29.89 in1012.2 mb 0.00 in0.0 mm 0.00 in0.0 mm 0.00 in0.0 mm
07:39 AM 39.2°F4.0°C 20.7°F-6.3°C 47% Calm Calm -- 29.88 in1011.9 mb 0.00 in0.0 mm 0.00 in0.0 mm 0.00 in0.0 mm
07:44 AM 40.3°F4.6°C 21.2°F-6.0°C 46% 2.0 mph SSW3.2 kmh SSW 3.4 mph5.5 kmh 29.88 in1011.9 mb 0.00 in0.0 mm 0.00 in0.0 mm 0.00 in0.0 mm
07:49 AM 41.4°F5.2°C 22.1°F-5.5°C 46% 0.4 mph S0.6 kmh S 1.1 mph1.8 kmh 29.88 in1011.9 mb 0.00 in0.0 mm 0.00 in0.0 mm 0.00 in0.0 mm
07:54 AM 44.4°F6.9°C 21.6°F-5.8°C 40% 1.3 mph W2.1 kmh W 2.2 mph3.5 kmh 29.88 in1011.9 mb 0.00 in0.0 mm 0.00 in0.0 mm 0.00 in0.0 mm
07:59 AM 47.5°F8.6°C 21.2°F-6.0°C 35% 3.6 mph SSW5.8 kmh SSW 4.5 mph7.2 kmh 29.88 in1011.9 mb 0.00 in0.0 mm 0.00 in0.0 mm 0.00 in0.0 mm
08:04 AM 49.1°F9.5°C 21.9°F-5.6°C 34% 3.4 mph S5.5 kmh S 5.8 mph9.3 kmh 29.88 in1011.9 mb 0.00 in0.0 mm 0.00 in0.0 mm 0.00 in0.0 mm
08:09 AM 48.7°F9.3°C 22.3°F-5.4°C 35% 1.8 mph S2.9 kmh S 2.2 mph3.5 kmh 29.88 in1011.9 mb 0.00 in0.0 mm 0.00 in0.0 mm 0.00 in0.0 mm
08:14 AM 47.8°F8.8°C 23.5°F-4.7°C 38% 2.2 mph S3.5 kmh S 3.4 mph5.5 kmh 29.89 in1012.2 mb 0.00 in0.0 mm 0.00 in0.0 mm 0.00 in0.0 mm
08:19 AM 47.5°F8.6°C 24.4°F-4.2°C 40% 0.7 mph S1.1 kmh S 1.1 mph1.8 kmh 29.89 in1012.2 mb 0.00 in0.0 mm 0.00 in0.0 mm 0.00 in0.0 mm
08:24 AM 45.7°F7.6°C 22.8°F-5.1°C 40% 0.7 mph S1.1 kmh S 1.1 mph1.8 kmh 29.89 in1012.2 mb 0.00 in0.0 mm 0.00 in0.0 mm 0.00 in0.0 mm
08:29 AM 44.8°F7.1°C 21.4°F-5.9°C 39% 0.7 mph SE1.1 kmh SE 1.1 mph1.8 kmh 29.89 in1012.2 mb 0.00 in0.0 mm 0.00 in0.0 mm 0.00 in0.0 mm
08:34 AM 44.4°F6.9°C 21.0°F-6.1°C 39% Calm Calm -- 29.90 in1012.5 mb 0.00 in0.0 mm 0.00 in0.0 mm 0.00 in0.0 mm
08:39 AM 45.3°F7.4°C 21.7°F-5.7°C 39% 0.7 mph SSW1.1 kmh SSW 1.1 mph1.8 kmh 29.89 in1012.2 mb 0.00 in0.0 mm 0.00 in0.0 mm 0.00 in0.0 mm
08:44 AM 45.7°F7.6°C 21.6°F-5.8°C 38% Calm Calm -- 29.89 in1012.2 mb 0.00 in0.0 mm 0.00 in0.0 mm 0.00 in0.0 mm
08:49 AM 46.2°F7.9°C 21.4°F-5.9°C 37% 0.2 mph WSW0.3 kmh WSW 1.1 mph1.8 kmh 29.89 in1012.2 mb 0.00 in0.0 mm 0.00 in0.0 mm 0.00 in0.0 mm
08:54 AM 46.8°F8.2°C 20.5°F-6.4°C 35% 0.7 mph NE1.1 kmh NE 1.1 mph1.8 kmh 29.89 in1012.2 mb 0.00 in0.0 mm 0.00 in0.0 mm 0.00 in0.0 mm
08:59 AM 48.0°F8.9°C 21.0°F-6.1°C 34% 0.4 mph NNE0.6 kmh NNE 1.1 mph1.8 kmh 29.89 in1012.2 mb 0.00 in0.0 mm 0.00 in0.0 mm 0.00 in0.0 mm
09:04 AM 49.6°F9.8°C 21.7°F-5.7°C 33% 0.4 mph E0.6 kmh E 1.1 mph1.8 kmh 29.89 in1012.2 mb 0.00 in0.0 mm 0.00 in0.0 mm 0.00 in0.0 mm
09:09 AM 50.0°F10.0°C 21.4°F-5.9°C 32% 0.2 mph W0.3 kmh W 1.1 mph1.8 kmh 29.89 in1012.2 mb 0.00 in0.0 mm 0.00 in0.0 mm 0.00 in0.0 mm
09:14 AM 50.5°F10.3°C 21.7°F-5.7°C 32% Calm Calm -- 29.89 in1012.2 mb 0.00 in0.0 mm 0.00 in0.0 mm 0.00 in0.0 mm
09:19 AM 50.9°F10.5°C 20.7°F-6.3°C 30% 0.2 mph SE0.3 kmh SE 1.1 mph1.8 kmh 29.88 in1011.9 mb 0.00 in0.0 mm 0.00 in0.0 mm 0.00 in0.0 mm
09:24 AM 51.4°F10.8°C 21.0°F-6.1°C 30% 0.2 mph E0.3 kmh E 1.1 mph1.8 kmh 29.88 in1011.9 mb 0.00 in0.0 mm 0.00 in0.0 mm 0.00 in0.0 mm
09:29 AM 52.2°F11.2°C 21.7°F-5.7°C 30% 0.2 mph SE0.3 kmh SE 1.1 mph1.8 kmh 29.89 in1012.2 mb 0.00 in0.0 mm 0.00 in0.0 mm 0.00 in0.0 mm
09:34 AM 52.5°F11.4°C 21.2°F-6.0°C 29% 0.2 mph SSW0.3 kmh SSW 1.1 mph1.8 kmh 29.89 in1012.2 mb 0.00 in0.0 mm 0.00 in0.0 mm 0.00 in0.0 mm
09:39 AM 52.5°F11.4°C 21.2°F-6.0°C 29% Calm Calm -- 29.89 in1012.2 mb 0.00 in0.0 mm 0.00 in0.0 mm 0.00 in0.0 mm
09:44 AM 52.0°F11.1°C 25.2°F-3.8°C 35% 0.9 mph SW1.4 kmh SW 2.2 mph3.5 kmh 29.89 in1012.2 mb 0.00 in0.0 mm 0.00 in0.0 mm 0.00 in0.0 mm
09:49 AM 49.5°F9.7°C 23.0°F-5.0°C 35% Calm Calm -- 29.89 in1012.2 mb 0.00 in0.0 mm 0.00 in0.0 mm 0.00 in0.0 mm
09:54 AM 50.2°F10.1°C 23.5°F-4.7°C 35% 0.9 mph E1.4 kmh E 1.1 mph1.8 kmh 29.89 in1012.2 mb 0.00 in0.0 mm 0.00 in0.0 mm 0.00 in0.0 mm
09:59 AM 51.3°F10.7°C 23.9°F-4.5°C 34% 0.4 mph SE0.6 kmh SE 1.1 mph1.8 kmh 29.89 in1012.2 mb 0.00 in0.0 mm 0.00 in0.0 mm 0.00 in0.0 mm
10:04 AM 51.8°F11.0°C 21.4°F-5.9°C 30% 0.4 mph ENE0.6 kmh ENE 1.1 mph1.8 kmh 29.88 in1011.9 mb 0.00 in0.0 mm 0.00 in0.0 mm 0.00 in0.0 mm
10:09 AM 51.8°F11.0°C 21.4°F-5.9°C 30% 1.3 mph W2.1 kmh W 2.2 mph3.5 kmh 29.88 in1011.9 mb 0.00 in0.0 mm 0.00 in0.0 mm 0.00 in0.0 mm
10:14 AM 51.6°F10.9°C 20.5°F-6.4°C 29% 0.4 mph SSW0.6 kmh SSW 1.1 mph1.8 kmh 29.87 in1011.5 mb 0.00 in0.0 mm 0.00 in0.0 mm 0.00 in0.0 mm
10:19 AM 54.3°F12.4°C 20.1°F-6.6°C 26% 0.2 mph ENE0.3 kmh ENE 1.1 mph1.8 kmh 29.88 in1011.9 mb 0.00 in0.0 mm 0.00 in0.0 mm 0.00 in0.0 mm
10:24 AM 54.3°F12.4°C 22.8°F-5.1°C 29% 1.1 mph S1.8 kmh S 2.2 mph3.5 kmh 29.88 in1011.9 mb 0.00 in0.0 mm 0.00 in0.0 mm 0.00 in0.0 mm
10:29 AM 52.0°F11.1°C 20.7°F-6.3°C 29% 0.2 mph SSE0.3 kmh SSE 1.1 mph1.8 kmh 29.87 in1011.5 mb 0.00 in0.0 mm 0.00 in0.0 mm 0.00 in0.0 mm
10:34 AM 54.0°F12.2°C 21.6°F-5.8°C 28% 0.9 mph NNW1.4 kmh NNW 1.1 mph1.8 kmh 29.88 in1011.9 mb 0.00 in0.0 mm 0.00 in0.0 mm 0.00 in0.0 mm
10:39 AM 55.4°F13.0°C 21.2°F-6.0°C 26% 1.3 mph ESE2.1 kmh ESE 2.2 mph3.5 kmh 29.87 in1011.5 mb 0.00 in0.0 mm 0.00 in0.0 mm 0.00 in0.0 mm
10:44 AM 55.6°F13.1°C 21.2°F-6.0°C 26% 3.4 mph NW5.5 kmh NW 5.8 mph9.3 kmh 29.86 in1011.2 mb 0.00 in0.0 mm 0.00 in0.0 mm 0.00 in0.0 mm
10:49 AM 54.5°F12.5°C 22.1°F-5.5°C 28% 2.2 mph ESE3.5 kmh ESE 3.4 mph5.5 kmh 29.86 in1011.2 mb 0.00 in0.0 mm 0.00 in0.0 mm 0.00 in0.0 mm
10:54 AM 52.9°F11.6°C 21.6°F-5.8°C 29% 2.7 mph ENE4.3 kmh ENE 4.5 mph7.2 kmh 29.86 in1011.2 mb 0.00 in0.0 mm 0.00 in0.0 mm 0.00 in0.0 mm
10:59 AM 54.1°F12.3°C 20.8°F-6.2°C 27% 1.8 mph NE2.9 kmh NE 2.2 mph3.5 kmh 29.86 in1011.2 mb 0.00 in0.0 mm 0.00 in0.0 mm 0.00 in0.0 mm
11:04 AM 55.2°F12.9°C 21.9°F-5.6°C 27% 0.7 mph NW1.1 kmh NW 1.1 mph1.8 kmh 29.86 in1011.2 mb 0.00 in0.0 mm 0.00 in0.0 mm 0.00 in0.0 mm
11:09 AM 54.5°F12.5°C 21.2°F-6.0°C 27% 2.5 mph NE4.0 kmh NE 3.4 mph5.5 kmh 29.86 in1011.2 mb 0.00 in0.0 mm 0.00 in0.0 mm 0.00 in0.0 mm
11:14 AM 54.0°F12.2°C 21.6°F-5.8°C 28% 1.3 mph WNW2.1 kmh WNW 2.2 mph3.5 kmh 29.86 in1011.2 mb 0.00 in0.0 mm 0.00 in0.0 mm 0.00 in0.0 mm
11:19 AM 54.7°F12.6°C 22.3°F-5.4°C 28% 0.7 mph E1.1 kmh E 1.1 mph1.8 kmh 29.85 in1010.8 mb 0.00 in0.0 mm 0.00 in0.0 mm 0.00 in0.0 mm
11:24 AM 54.7°F12.6°C 22.3°F-5.4°C 28% 3.1 mph E5.0 kmh E 4.5 mph7.2 kmh 29.85 in1010.8 mb 0.00 in0.0 mm 0.00 in0.0 mm 0.00 in0.0 mm
11:29 AM 54.7°F12.6°C 23.0°F-5.0°C 29% 0.7 mph ESE1.1 kmh ESE 1.1 mph1.8 kmh 29.84 in1010.5 mb 0.00 in0.0 mm 0.00 in0.0 mm 0.00 in0.0 mm
11:34 AM 54.7°F12.6°C 21.4°F-5.9°C 27% 1.8 mph NW2.9 kmh NW 2.2 mph3.5 kmh 29.84 in1010.5 mb 0.00 in0.0 mm 0.00 in0.0 mm 0.00 in0.0 mm
11:39 AM 53.6°F12.0°C 22.1°F-5.5°C 29% 0.9 mph E1.4 kmh E 2.2 mph3.5 kmh 29.83 in1010.2 mb 0.00 in0.0 mm 0.00 in0.0 mm 0.00 in0.0 mm
11:44 AM 53.8°F12.1°C 21.6°F-5.8°C 28% 0.2 mph SSW0.3 kmh SSW 1.1 mph1.8 kmh 29.83 in1010.2 mb 0.00 in0.0 mm 0.00 in0.0 mm 0.00 in0.0 mm
11:49 AM 54.7°F12.6°C 22.3°F-5.4°C 28% Calm Calm -- 29.82 in1009.8 mb 0.00 in0.0 mm 0.00 in0.0 mm 0.00 in0.0 mm
11:54 AM 53.6°F12.0°C 27.3°F-2.6°C 36% 2.7 mph SW4.3 kmh SW 4.5 mph7.2 kmh 29.83 in1010.2 mb 0.00 in0.0 mm 0.00 in0.0 mm 0.00 in0.0 mm
11:59 AM 50.4°F10.2°C 27.0°F-2.8°C 40% 0.7 mph S1.1 kmh S 1.1 mph1.8 kmh 29.83 in1010.2 mb 0.00 in0.0 mm 0.00 in0.0 mm 0.00 in0.0 mm
12:04 PM 50.5°F10.3°C 25.9°F-3.4°C 38% 1.8 mph E2.9 kmh E 2.2 mph3.5 kmh 29.82 in1009.8 mb 0.00 in0.0 mm 0.00 in0.0 mm 0.00 in0.0 mm
12:09 PM 51.3°F10.7°C 25.9°F-3.4°C 37% 2.2 mph ENE3.5 kmh ENE 3.4 mph5.5 kmh 29.81 in1009.5 mb 0.00 in0.0 mm 0.00 in0.0 mm 0.00 in0.0 mm
12:14 PM 52.0°F11.1°C 28.4°F-2.0°C 40% 2.0 mph E3.2 kmh E 2.2 mph3.5 kmh 29.80 in1009.1 mb 0.00 in0.0 mm 0.00 in0.0 mm 0.00 in0.0 mm
12:19 PM 50.4°F10.2°C 28.2°F-2.1°C 42% 1.3 mph NE2.1 kmh NE 2.2 mph3.5 kmh 29.80 in1009.1 mb 0.00 in0.0 mm 0.00 in0.0 mm 0.00 in0.0 mm
12:24 PM 50.5°F10.3°C 27.1°F-2.7°C 40% 0.9 mph NE1.4 kmh NE 1.1 mph1.8 kmh 29.80 in1009.1 mb 0.00 in0.0 mm 0.00 in0.0 mm 0.00 in0.0 mm
12:29 PM 50.9°F10.5°C 27.5°F-2.5°C 40% Calm Calm -- 29.79 in1008.8 mb 0.00 in0.0 mm 0.00 in0.0 mm 0.00 in0.0 mm
12:34 PM 52.0°F11.1°C 28.4°F-2.0°C 40% 1.6 mph NE2.6 kmh NE 2.2 mph3.5 kmh 29.79 in1008.8 mb 0.00 in0.0 mm 0.00 in0.0 mm 0.00 in0.0 mm
12:39 PM 51.1°F10.6°C 28.8°F-1.8°C 42% 0.7 mph E1.1 kmh E 1.1 mph1.8 kmh 29.78 in1008.5 mb 0.00 in0.0 mm 0.00 in0.0 mm 0.00 in0.0 mm
12:44 PM 50.5°F10.3°C 28.4°F-2.0°C 42% 0.4 mph SW0.6 kmh SW 1.1 mph1.8 kmh 29.79 in1008.8 mb 0.00 in0.0 mm 0.00 in0.0 mm 0.00 in0.0 mm
12:49 PM 51.1°F10.6°C 28.8°F-1.8°C 42% 0.2 mph E0.3 kmh E 1.1 mph1.8 kmh 29.78 in1008.5 mb 0.00 in0.0 mm 0.00 in0.0 mm 0.00 in0.0 mm
12:54 PM 51.1°F10.6°C 28.8°F-1.8°C 42% 2.0 mph ENE3.2 kmh ENE 2.2 mph3.5 kmh 29.78 in1008.5 mb 0.00 in0.0 mm 0.00 in0.0 mm 0.00 in0.0 mm
12:59 PM 51.3°F10.7°C 28.4°F-2.0°C 41% 1.1 mph N1.8 kmh N 2.2 mph3.5 kmh 29.78 in1008.5 mb 0.00 in0.0 mm 0.00 in0.0 mm 0.00 in0.0 mm
01:04 PM 51.6°F10.9°C 28.0°F-2.2°C 40% 2.7 mph ENE4.3 kmh ENE 3.4 mph5.5 kmh 29.77 in1008.1 mb 0.00 in0.0 mm 0.00 in0.0 mm 0.00 in0.0 mm
01:09 PM 51.6°F10.9°C 27.5°F-2.5°C 39% 1.8 mph ENE2.9 kmh ENE 2.2 mph3.5 kmh 29.76 in1007.8 mb 0.00 in0.0 mm 0.00 in0.0 mm 0.00 in0.0 mm
01:14 PM 51.8°F11.0°C 27.0°F-2.8°C 38% 0.9 mph SW1.4 kmh SW 2.2 mph3.5 kmh 29.77 in1008.1 mb 0.00 in0.0 mm 0.00 in0.0 mm 0.00 in0.0 mm
01:19 PM 52.2°F11.2°C 27.3°F-2.6°C 38% Calm Calm -- 29.76 in1007.8 mb 0.00 in0.0 mm 0.00 in0.0 mm 0.00 in0.0 mm
01:24 PM 52.0°F11.1°C 27.1°F-2.7°C 38% 0.2 mph ESE0.3 kmh ESE 1.1 mph1.8 kmh 29.76 in1007.8 mb 0.00 in0.0 mm 0.00 in0.0 mm 0.00 in0.0 mm
01:29 PM 52.5°F11.4°C 27.7°F-2.4°C 38% 0.9 mph SSE1.4 kmh SSE 1.1 mph1.8 kmh 29.76 in1007.8 mb 0.00 in0.0 mm 0.00 in0.0 mm 0.00 in0.0 mm
01:34 PM 52.9°F11.6°C 27.3°F-2.6°C 37% 2.0 mph SSE3.2 kmh SSE 2.2 mph3.5 kmh 29.75 in1007.5 mb 0.00 in0.0 mm 0.00 in0.0 mm 0.00 in0.0 mm
01:39 PM 52.9°F11.6°C 26.6°F-3.0°C 36% 1.1 mph NE1.8 kmh NE 2.2 mph3.5 kmh 29.75 in1007.5 mb 0.00 in0.0 mm 0.00 in0.0 mm 0.00 in0.0 mm
01:44 PM 52.9°F11.6°C 26.6°F-3.0°C 36% Calm Calm -- 29.74 in1007.1 mb 0.00 in0.0 mm 0.00 in0.0 mm 0.00 in0.0 mm
01:49 PM 53.6°F12.0°C 26.6°F-3.0°C 35% 1.3 mph ENE2.1 kmh ENE 2.2 mph3.5 kmh 29.75 in1007.5 mb 0.00 in0.0 mm 0.00 in0.0 mm 0.00 in0.0 mm
01:54 PM 52.9°F11.6°C 26.6°F-3.0°C 36% 0.7 mph ENE1.1 kmh ENE 1.1 mph1.8 kmh 29.74 in1007.1 mb 0.00 in0.0 mm 0.00 in0.0 mm 0.00 in0.0 mm
01:59 PM 53.1°F11.7°C 26.8°F-2.9°C 36% 0.9 mph NE1.4 kmh NE 2.2 mph3.5 kmh 29.75 in1007.5 mb 0.00 in0.0 mm 0.00 in0.0 mm 0.00 in0.0 mm
02:04 PM 53.6°F12.0°C 27.3°F-2.6°C 36% 2.5 mph NE4.0 kmh NE 4.5 mph7.2 kmh 29.74 in1007.1 mb 0.00 in0.0 mm 0.00 in0.0 mm 0.00 in0.0 mm
02:09 PM 53.1°F11.7°C 27.5°F-2.5°C 37% 1.3 mph ENE2.1 kmh ENE 2.2 mph3.5 kmh 29.74 in1007.1 mb 0.00 in0.0 mm 0.00 in0.0 mm 0.00 in0.0 mm
02:14 PM 52.9°F11.6°C 28.0°F-2.2°C 38% 0.9 mph E1.4 kmh E 1.1 mph1.8 kmh 29.74 in1007.1 mb 0.00 in0.0 mm 0.00 in0.0 mm 0.00 in0.0 mm
02:19 PM 52.2°F11.2°C 28.0°F-2.2°C 39% 1.1 mph S1.8 kmh S 2.2 mph3.5 kmh 29.75 in1007.5 mb 0.00 in0.0 mm 0.00 in0.0 mm 0.00 in0.0 mm
02:24 PM 52.3°F11.3°C 28.2°F-2.1°C 39% 1.6 mph ENE2.6 kmh ENE 3.4 mph5.5 kmh 29.73 in1006.8 mb 0.00 in0.0 mm 0.00 in0.0 mm 0.00 in0.0 mm
02:29 PM 52.0°F11.1°C 27.9°F-2.3°C 39% 1.3 mph SSE2.1 kmh SSE 2.2 mph3.5 kmh 29.73 in1006.8 mb 0.00 in0.0 mm 0.00 in0.0 mm 0.00 in0.0 mm
02:34 PM 52.0°F11.1°C 27.9°F-2.3°C 39% 1.8 mph E2.9 kmh E 2.2 mph3.5 kmh 29.75 in1007.5 mb 0.00 in0.0 mm 0.00 in0.0 mm 0.00 in0.0 mm
02:39 PM 52.0°F11.1°C 27.9°F-2.3°C 39% 1.3 mph NE2.1 kmh NE 2.2 mph3.5 kmh 29.74 in1007.1 mb 0.00 in0.0 mm 0.00 in0.0 mm 0.00 in0.0 mm
02:44 PM 52.0°F11.1°C 27.9°F-2.3°C 39% Calm Calm -- 29.75 in1007.5 mb 0.00 in0.0 mm 0.00 in0.0 mm 0.00 in0.0 mm
02:49 PM 51.8°F11.0°C 28.2°F-2.1°C 40% 1.8 mph ENE2.9 kmh ENE 3.4 mph5.5 kmh 29.75 in1007.5 mb 0.00 in0.0 mm 0.00 in0.0 mm 0.00 in0.0 mm
02:54 PM 51.4°F10.8°C 27.9°F-2.3°C 40% 0.7 mph SE1.1 kmh SE 1.1 mph1.8 kmh 29.76 in1007.8 mb 0.00 in0.0 mm 0.00 in0.0 mm 0.00 in0.0 mm
02:59 PM 51.4°F10.8°C 28.6°F-1.9°C 41% 0.9 mph ENE1.4 kmh ENE 2.2 mph3.5 kmh 29.76 in1007.8 mb 0.00 in0.0 mm 0.00 in0.0 mm 0.00 in0.0 mm
03:04 PM 51.6°F10.9°C 28.0°F-2.2°C 40% 2.2 mph NE3.5 kmh NE 4.5 mph7.2 kmh 29.76 in1007.8 mb 0.00 in0.0 mm 0.00 in0.0 mm 0.00 in0.0 mm
03:09 PM 50.9°F10.5°C 28.0°F-2.2°C 41% 0.9 mph ENE1.4 kmh ENE 1.1 mph1.8 kmh 29.76 in1007.8 mb 0.00 in0.0 mm 0.00 in0.0 mm 0.00 in0.0 mm
03:14 PM 51.3°F10.7°C 27.7°F-2.4°C 40% 2.2 mph S3.5 kmh S 3.4 mph5.5 kmh 29.76 in1007.8 mb 0.00 in0.0 mm 0.00 in0.0 mm 0.00 in0.0 mm
03:19 PM 51.1°F10.6°C 27.7°F-2.4°C 40% 0.4 mph SE0.6 kmh SE 1.1 mph1.8 kmh 29.75 in1007.5 mb 0.00 in0.0 mm 0.00 in0.0 mm 0.00 in0.0 mm
03:24 PM 51.1°F10.6°C 27.7°F-2.4°C 40% 1.6 mph SSE2.6 kmh SSE 2.2 mph3.5 kmh 29.76 in1007.8 mb 0.00 in0.0 mm 0.00 in0.0 mm 0.00 in0.0 mm
03:29 PM 50.5°F10.3°C 27.7°F-2.4°C 41% 3.1 mph NE5.0 kmh NE 4.5 mph7.2 kmh 29.74 in1007.1 mb 0.00 in0.0 mm 0.00 in0.0 mm 0.00 in0.0 mm
03:34 PM 50.4°F10.2°C 27.5°F-2.5°C 41% 2.0 mph NE3.2 kmh NE 2.2 mph3.5 kmh 29.74 in1007.1 mb 0.00 in0.0 mm 0.00 in0.0 mm 0.00 in0.0 mm
03:39 PM 50.4°F10.2°C 27.5°F-2.5°C 41% 1.3 mph S2.1 kmh S 2.2 mph3.5 kmh 29.75 in1007.5 mb 0.00 in0.0 mm 0.00 in0.0 mm 0.00 in0.0 mm
03:44 PM 50.2°F10.1°C 27.3°F-2.6°C 41% Calm Calm -- 29.75 in1007.5 mb 0.00 in0.0 mm 0.00 in0.0 mm 0.00 in0.0 mm
03:49 PM 49.3°F9.6°C 27.7°F-2.4°C 43% 1.8 mph NE2.9 kmh NE 2.2 mph3.5 kmh 29.74 in1007.1 mb 0.00 in0.0 mm 0.00 in0.0 mm 0.00 in0.0 mm
03:54 PM 49.1°F9.5°C 27.5°F-2.5°C 43% Calm Calm -- 29.74 in1007.1 mb 0.00 in0.0 mm 0.00 in0.0 mm 0.00 in0.0 mm
03:59 PM 49.5°F9.7°C 27.3°F-2.6°C 42% 1.3 mph ENE2.1 kmh ENE 2.2 mph3.5 kmh 29.74 in1007.1 mb 0.00 in0.0 mm 0.00 in0.0 mm 0.00 in0.0 mm
04:04 PM 49.3°F9.6°C 27.1°F-2.7°C 42% 0.2 mph NE0.3 kmh NE 1.1 mph1.8 kmh 29.74 in1007.1 mb 0.00 in0.0 mm 0.00 in0.0 mm 0.00 in0.0 mm
04:09 PM 49.1°F9.5°C 27.5°F-2.5°C 43% 0.4 mph ENE0.6 kmh ENE 1.1 mph1.8 kmh 29.74 in1007.1 mb 0.00 in0.0 mm 0.00 in0.0 mm 0.00 in0.0 mm
04:14 PM 48.7°F9.3°C 27.9°F-2.3°C 44% 0.2 mph ENE0.3 kmh ENE 1.1 mph1.8 kmh 29.73 in1006.8 mb 0.00 in0.0 mm 0.00 in0.0 mm 0.00 in0.0 mm
04:19 PM 48.7°F9.3°C 27.9°F-2.3°C 44% 0.9 mph S1.4 kmh S 1.1 mph1.8 kmh 29.73 in1006.8 mb 0.00 in0.0 mm 0.00 in0.0 mm 0.00 in0.0 mm
04:24 PM 48.4°F9.1°C 28.0°F-2.2°C 45% Calm Calm -- 29.73 in1006.8 mb 0.00 in0.0 mm 0.00 in0.0 mm 0.00 in0.0 mm
04:29 PM 47.7°F8.7°C 27.9°F-2.3°C 46% Calm Calm -- 29.73 in1006.8 mb 0.00 in0.0 mm 0.00 in0.0 mm 0.00 in0.0 mm
04:34 PM 47.5°F8.6°C 27.7°F-2.4°C 46% Calm Calm -- 29.72 in1006.4 mb 0.00 in0.0 mm 0.00 in0.0 mm 0.00 in0.0 mm
04:39 PM 46.8°F8.2°C 27.5°F-2.5°C 47% 1.3 mph E2.1 kmh E 2.2 mph3.5 kmh 29.72 in1006.4 mb 0.00 in0.0 mm 0.00 in0.0 mm 0.00 in0.0 mm
04:44 PM 45.5°F7.5°C 27.5°F-2.5°C 49% 1.8 mph SW2.9 kmh SW 3.4 mph5.5 kmh 29.72 in1006.4 mb 0.00 in0.0 mm 0.00 in0.0 mm 0.00 in0.0 mm
04:49 PM 46.9°F8.3°C 27.3°F-2.6°C 46% 2.5 mph SW4.0 kmh SW 3.4 mph5.5 kmh 29.71 in1006.1 mb 0.00 in0.0 mm 0.00 in0.0 mm 0.00 in0.0 mm
04:54 PM 47.8°F8.8°C 27.5°F-2.5°C 45% Calm Calm -- 29.72 in1006.4 mb 0.00 in0.0 mm 0.00 in0.0 mm 0.00 in0.0 mm
04:59 PM 47.1°F8.4°C 27.0°F-2.8°C 45% 1.3 mph S2.1 kmh S 2.2 mph3.5 kmh 29.72 in1006.4 mb 0.00 in0.0 mm 0.00 in0.0 mm 0.00 in0.0 mm
05:04 PM 46.2°F7.9°C 27.1°F-2.7°C 47% 0.9 mph E1.4 kmh E 1.1 mph1.8 kmh 29.71 in1006.1 mb 0.00 in0.0 mm 0.00 in0.0 mm 0.00 in0.0 mm
05:09 PM 45.7°F7.6°C 28.0°F-2.2°C 50% 1.3 mph S2.1 kmh S 2.2 mph3.5 kmh 29.72 in1006.4 mb 0.00 in0.0 mm 0.00 in0.0 mm 0.00 in0.0 mm
05:14 PM 44.6°F7.0°C 27.7°F-2.4°C 51% 0.4 mph E0.6 kmh E 1.1 mph1.8 kmh 29.71 in1006.1 mb 0.00 in0.0 mm 0.00 in0.0 mm 0.00 in0.0 mm
05:19 PM 43.0°F6.1°C 27.5°F-2.5°C 54% Calm Calm -- 29.72 in1006.4 mb 0.00 in0.0 mm 0.00 in0.0 mm 0.00 in0.0 mm
05:24 PM 42.8°F6.0°C 27.7°F-2.4°C 55% 1.1 mph S1.8 kmh S 1.1 mph1.8 kmh 29.72 in1006.4 mb 0.00 in0.0 mm 0.00 in0.0 mm 0.00 in0.0 mm
05:29 PM 42.6°F5.9°C 27.5°F-2.5°C 55% 1.3 mph S2.1 kmh S 2.2 mph3.5 kmh 29.72 in1006.4 mb 0.00 in0.0 mm 0.00 in0.0 mm 0.00 in0.0 mm
05:34 PM 42.3°F5.7°C 28.0°F-2.2°C 57% Calm Calm -- 29.72 in1006.4 mb 0.00 in0.0 mm 0.00 in0.0 mm 0.00 in0.0 mm
05:39 PM 40.6°F4.8°C 27.5°F-2.5°C 59% 1.3 mph S2.1 kmh S 2.2 mph3.5 kmh 29.73 in1006.8 mb 0.00 in0.0 mm 0.00 in0.0 mm 0.00 in0.0 mm
05:44 PM 40.5°F4.7°C 27.7°F-2.4°C 60% 0.2 mph E0.3 kmh E 1.1 mph1.8 kmh 29.73 in1006.8 mb 0.00 in0.0 mm 0.00 in0.0 mm 0.00 in0.0 mm
05:49 PM 39.0°F3.9°C 27.1°F-2.7°C 62% Calm Calm -- 29.73 in1006.8 mb 0.00 in0.0 mm 0.00 in0.0 mm 0.00 in0.0 mm
05:54 PM 39.4°F4.1°C 27.5°F-2.5°C 62% Calm Calm -- 29.73 in1006.8 mb 0.00 in0.0 mm 0.00 in0.0 mm 0.00 in0.0 mm
05:59 PM 37.9°F3.3°C 26.8°F-2.9°C 64% Calm Calm -- 29.72 in1006.4 mb 0.00 in0.0 mm 0.00 in0.0 mm 0.00 in0.0 mm
06:04 PM 37.9°F3.3°C 26.8°F-2.9°C 64% Calm Calm -- 29.72 in1006.4 mb 0.00 in0.0 mm 0.00 in0.0 mm 0.00 in0.0 mm
06:09 PM 37.4°F3.0°C 27.1°F-2.7°C 66% Calm Calm -- 29.72 in1006.4 mb 0.00 in0.0 mm 0.00 in0.0 mm 0.00 in0.0 mm
06:14 PM 36.9°F2.7°C 26.8°F-2.9°C 67% Calm Calm -- 29.72 in1006.4 mb 0.00 in0.0 mm 0.00 in0.0 mm 0.00 in0.0 mm
06:19 PM 37.4°F3.0°C 26.8°F-2.9°C 65% Calm Calm -- 29.72 in1006.4 mb 0.00 in0.0 mm 0.00 in0.0 mm 0.00 in0.0 mm
06:24 PM 37.0°F2.8°C 26.8°F-2.9°C 66% 0.9 mph E1.4 kmh E 1.1 mph1.8 kmh 29.72 in1006.4 mb 0.00 in0.0 mm 0.00 in0.0 mm 0.00 in0.0 mm
06:29 PM 39.2°F4.0°C 27.3°F-2.6°C 62% 0.9 mph E1.4 kmh E 1.1 mph1.8 kmh 29.72 in1006.4 mb 0.00 in0.0 mm 0.00 in0.0 mm 0.00 in0.0 mm
06:34 PM 40.6°F4.8°C 27.5°F-2.5°C 59% 0.2 mph E0.3 kmh E 1.1 mph1.8 kmh 29.73 in1006.8 mb 0.00 in0.0 mm 0.00 in0.0 mm 0.00 in0.0 mm
06:39 PM 40.3°F4.6°C 27.5°F-2.5°C 60% Calm Calm -- 29.72 in1006.4 mb 0.00 in0.0 mm 0.00 in0.0 mm 0.00 in0.0 mm
06:44 PM 41.0°F5.0°C 27.0°F-2.8°C 57% Calm Calm -- 29.72 in1006.4 mb 0.00 in0.0 mm 0.00 in0.0 mm 0.00 in0.0 mm
06:49 PM 41.7°F5.4°C 26.8°F-2.9°C 55% Calm Calm -- 29.71 in1006.1 mb 0.00 in0.0 mm 0.00 in0.0 mm 0.00 in0.0 mm
06:54 PM 41.9°F5.5°C 26.4°F-3.1°C 54% 0.2 mph ESE0.3 kmh ESE 1.1 mph1.8 kmh 29.72 in1006.4 mb 0.00 in0.0 mm 0.00 in0.0 mm 0.00 in0.0 mm
06:59 PM 41.4°F5.2°C 27.3°F-2.6°C 57% 0.9 mph SSE1.4 kmh SSE 1.1 mph1.8 kmh 29.72 in1006.4 mb 0.00 in0.0 mm 0.00 in0.0 mm 0.00 in0.0 mm
07:04 PM 41.9°F5.5°C 26.4°F-3.1°C 54% 0.2 mph SSE0.3 kmh SSE 1.1 mph1.8 kmh 29.72 in1006.4 mb 0.00 in0.0 mm 0.00 in0.0 mm 0.00 in0.0 mm
07:09 PM 43.7°F6.5°C 24.8°F-4.0°C 47% 1.6 mph SW2.6 kmh SW 4.5 mph7.2 kmh 29.72 in1006.4 mb 0.00 in0.0 mm 0.00 in0.0 mm 0.00 in0.0 mm
07:14 PM 48.4°F9.1°C 23.9°F-4.5°C 38% 3.4 mph SSW5.5 kmh SSW 5.8 mph9.3 kmh 29.72 in1006.4 mb 0.00 in0.0 mm 0.00 in0.0 mm 0.00 in0.0 mm
07:19 PM 50.5°F10.3°C 25.9°F-3.4°C 38% 1.1 mph S1.8 kmh S 1.1 mph1.8 kmh 29.71 in1006.1 mb 0.00 in0.0 mm 0.00 in0.0 mm 0.00 in0.0 mm
07:24 PM 51.1°F10.6°C 25.7°F-3.5°C 37% 3.4 mph S5.5 kmh S 5.8 mph9.3 kmh 29.71 in1006.1 mb 0.00 in0.0 mm 0.00 in0.0 mm 0.00 in0.0 mm
07:29 PM 51.8°F11.0°C 25.7°F-3.5°C 36% 5.4 mph SSE8.7 kmh SSE 8.1 mph13.0 kmh 29.71 in1006.1 mb 0.00 in0.0 mm 0.00 in0.0 mm 0.00 in0.0 mm
07:34 PM 51.8°F11.0°C 26.4°F-3.1°C 37% 3.4 mph SSW5.5 kmh SSW 4.5 mph7.2 kmh 29.70 in1005.8 mb 0.00 in0.0 mm 0.00 in0.0 mm 0.00 in0.0 mm
07:39 PM 52.0°F11.1°C 25.9°F-3.4°C 36% 4.0 mph S6.4 kmh S 5.8 mph9.3 kmh 29.70 in1005.8 mb 0.00 in0.0 mm 0.00 in0.0 mm 0.00 in0.0 mm
07:44 PM 51.1°F10.6°C 26.4°F-3.1°C 38% 5.4 mph SW8.7 kmh SW 6.9 mph11.1 kmh 29.69 in1005.4 mb 0.00 in0.0 mm 0.00 in0.0 mm 0.00 in0.0 mm
07:49 PM 51.3°F10.7°C 25.9°F-3.4°C 37% 2.9 mph WSW4.7 kmh WSW 4.5 mph7.2 kmh 29.69 in1005.4 mb 0.00 in0.0 mm 0.00 in0.0 mm 0.00 in0.0 mm
07:54 PM 51.8°F11.0°C 24.4°F-4.2°C 34% 4.9 mph SW7.9 kmh SW 8.1 mph13.0 kmh 29.68 in1005.1 mb 0.00 in0.0 mm 0.00 in0.0 mm 0.00 in0.0 mm
07:59 PM 52.3°F11.3°C 25.5°F-3.6°C 35% 3.4 mph SW5.5 kmh SW 4.5 mph7.2 kmh 29.68 in1005.1 mb 0.00 in0.0 mm 0.00 in0.0 mm 0.00 in0.0 mm
08:04 PM 51.6°F10.9°C 25.5°F-3.6°C 36% 1.8 mph S2.9 kmh S 3.4 mph5.5 kmh 29.67 in1004.7 mb 0.00 in0.0 mm 0.00 in0.0 mm 0.00 in0.0 mm
08:09 PM 51.6°F10.9°C 24.8°F-4.0°C 35% 1.1 mph SW1.8 kmh SW 2.2 mph3.5 kmh 29.67 in1004.7 mb 0.00 in0.0 mm 0.00 in0.0 mm 0.00 in0.0 mm
08:14 PM 52.2°F11.2°C 25.3°F-3.7°C 35% 0.9 mph SW1.4 kmh SW 1.1 mph1.8 kmh 29.66 in1004.4 mb 0.00 in0.0 mm 0.00 in0.0 mm 0.00 in0.0 mm
08:19 PM 52.2°F11.2°C 25.3°F-3.7°C 35% 1.3 mph SSW2.1 kmh SSW 2.2 mph3.5 kmh 29.67 in1004.7 mb 0.00 in0.0 mm 0.00 in0.0 mm 0.00 in0.0 mm
08:24 PM 51.8°F11.0°C 24.4°F-4.2°C 34% 4.0 mph SW6.4 kmh SW 4.5 mph7.2 kmh 29.66 in1004.4 mb 0.00 in0.0 mm 0.00 in0.0 mm 0.00 in0.0 mm
08:29 PM 51.8°F11.0°C 24.4°F-4.2°C 34% 2.5 mph SW4.0 kmh SW 3.4 mph5.5 kmh 29.67 in1004.7 mb 0.00 in0.0 mm 0.00 in0.0 mm 0.00 in0.0 mm
08:34 PM 51.3°F10.7°C 24.6°F-4.1°C 35% 1.1 mph S1.8 kmh S 2.2 mph3.5 kmh 29.66 in1004.4 mb 0.00 in0.0 mm 0.00 in0.0 mm 0.00 in0.0 mm
08:39 PM 52.9°F11.6°C 23.9°F-4.5°C 32% 1.6 mph SSE2.6 kmh SSE 2.2 mph3.5 kmh 29.65 in1004.1 mb 0.00 in0.0 mm 0.00 in0.0 mm 0.00 in0.0 mm
08:44 PM 53.1°F11.7°C 24.1°F-4.4°C 32% 4.0 mph S6.4 kmh S 5.8 mph9.3 kmh 29.65 in1004.1 mb 0.00 in0.0 mm 0.00 in0.0 mm 0.00 in0.0 mm
08:49 PM 53.6°F12.0°C 23.7°F-4.6°C 31% Calm Calm -- 29.65 in1004.1 mb 0.00 in0.0 mm 0.00 in0.0 mm 0.00 in0.0 mm
08:54 PM 52.9°F11.6°C 23.0°F-5.0°C 31% 2.2 mph S3.5 kmh S 3.4 mph5.5 kmh 29.65 in1004.1 mb 0.00 in0.0 mm 0.00 in0.0 mm 0.00 in0.0 mm
08:59 PM 51.8°F11.0°C 24.4°F-4.2°C 34% 1.8 mph S2.9 kmh S 2.2 mph3.5 kmh 29.67 in1004.7 mb 0.00 in0.0 mm 0.00 in0.0 mm 0.00 in0.0 mm
09:04 PM 51.3°F10.7°C 23.9°F-4.5°C 34% 3.4 mph SW5.5 kmh SW 3.4 mph5.5 kmh 29.65 in1004.1 mb 0.00 in0.0 mm 0.00 in0.0 mm 0.00 in0.0 mm
09:09 PM 50.2°F10.1°C 25.0°F-3.9°C 37% 1.8 mph S2.9 kmh S 3.4 mph5.5 kmh 29.66 in1004.4 mb 0.00 in0.0 mm 0.00 in0.0 mm 0.00 in0.0 mm
09:14 PM 49.3°F9.6°C 24.8°F-4.0°C 38% 1.8 mph S2.9 kmh S 3.4 mph5.5 kmh 29.65 in1004.1 mb 0.00 in0.0 mm 0.00 in0.0 mm 0.00 in0.0 mm
09:19 PM 50.4°F10.2°C 24.4°F-4.2°C 36% 0.7 mph E1.1 kmh E 2.2 mph3.5 kmh 29.66 in1004.4 mb 0.00 in0.0 mm 0.00 in0.0 mm 0.00 in0.0 mm
09:24 PM 48.6°F9.2°C 25.3°F-3.7°C 40% 2.7 mph NW4.3 kmh NW 4.5 mph7.2 kmh 29.66 in1004.4 mb 0.00 in0.0 mm 0.00 in0.0 mm 0.00 in0.0 mm
09:29 PM 46.4°F8.0°C 25.2°F-3.8°C 43% 0.2 mph SSE0.3 kmh SSE 1.1 mph1.8 kmh 29.66 in1004.4 mb 0.00 in0.0 mm 0.00 in0.0 mm 0.00 in0.0 mm
09:34 PM 45.7°F7.6°C 24.4°F-4.2°C 43% 1.3 mph S2.1 kmh S 2.2 mph3.5 kmh 29.66 in1004.4 mb 0.00 in0.0 mm 0.00 in0.0 mm 0.00 in0.0 mm
09:39 PM 46.4°F8.0°C 25.2°F-3.8°C 43% Calm Calm -- 29.65 in1004.1 mb 0.00 in0.0 mm 0.00 in0.0 mm 0.00 in0.0 mm
09:44 PM 47.5°F8.6°C 24.4°F-4.2°C 40% Calm Calm -- 29.65 in1004.1 mb 0.00 in0.0 mm 0.00 in0.0 mm 0.00 in0.0 mm
09:49 PM 48.9°F9.4°C 25.0°F-3.9°C 39% 0.9 mph S1.4 kmh S 1.1 mph1.8 kmh 29.65 in1004.1 mb 0.00 in0.0 mm 0.00 in0.0 mm 0.00 in0.0 mm
09:54 PM 49.6°F9.8°C 25.2°F-3.8°C 38% 0.7 mph S1.1 kmh S 1.1 mph1.8 kmh 29.66 in1004.4 mb 0.00 in0.0 mm 0.00 in0.0 mm 0.00 in0.0 mm
09:59 PM 49.1°F9.5°C 25.9°F-3.4°C 40% 2.5 mph SW4.0 kmh SW 4.5 mph7.2 kmh 29.66 in1004.4 mb 0.00 in0.0 mm 0.00 in0.0 mm 0.00 in0.0 mm
10:04 PM 48.6°F9.2°C 25.3°F-3.7°C 40% 3.1 mph SW5.0 kmh SW 4.5 mph7.2 kmh 29.67 in1004.7 mb 0.00 in0.0 mm 0.00 in0.0 mm 0.00 in0.0 mm
10:09 PM 48.4°F9.1°C 25.2°F-3.8°C 40% 1.8 mph SSW2.9 kmh SSW 2.2 mph3.5 kmh 29.67 in1004.7 mb 0.00 in0.0 mm 0.00 in0.0 mm 0.00 in0.0 mm
10:14 PM 47.7°F8.7°C 25.2°F-3.8°C 41% 1.8 mph SSW2.9 kmh SSW 2.2 mph3.5 kmh 29.66 in1004.4 mb 0.00 in0.0 mm 0.00 in0.0 mm 0.00 in0.0 mm
10:19 PM 46.8°F8.2°C 25.0°F-3.9°C 42% 1.8 mph S2.9 kmh S 2.2 mph3.5 kmh 29.67 in1004.7 mb 0.00 in0.0 mm 0.00 in0.0 mm 0.00 in0.0 mm
10:24 PM 46.0°F7.8°C 24.8°F-4.0°C 43% Calm Calm -- 29.66 in1004.4 mb 0.00 in0.0 mm 0.00 in0.0 mm 0.00 in0.0 mm
10:29 PM 45.1°F7.3°C 24.4°F-4.2°C 44% Calm Calm -- 29.67 in1004.7 mb 0.00 in0.0 mm 0.00 in0.0 mm 0.00 in0.0 mm
10:34 PM 43.7°F6.5°C 24.8°F-4.0°C 47% Calm Calm -- 29.67 in1004.7 mb 0.00 in0.0 mm 0.00 in0.0 mm 0.00 in0.0 mm
10:39 PM 43.0°F6.1°C 24.6°F-4.1°C 48% 0.2 mph S0.3 kmh S 1.1 mph1.8 kmh 29.66 in1004.4 mb 0.00 in0.0 mm 0.00 in0.0 mm 0.00 in0.0 mm
10:44 PM 42.1°F5.6°C 24.8°F-4.0°C 50% 1.1 mph S1.8 kmh S 1.1 mph1.8 kmh 29.66 in1004.4 mb 0.00 in0.0 mm 0.00 in0.0 mm 0.00 in0.0 mm
10:49 PM 41.4°F5.2°C 25.0°F-3.9°C 52% Calm Calm -- 29.66 in1004.4 mb 0.00 in0.0 mm 0.00 in0.0 mm 0.00 in0.0 mm
10:54 PM 40.5°F4.7°C 24.6°F-4.1°C 53% Calm Calm -- 29.66 in1004.4 mb 0.00 in0.0 mm 0.00 in0.0 mm 0.00 in0.0 mm
10:59 PM 38.3°F3.5°C 24.4°F-4.2°C 57% Calm Calm -- 29.66 in1004.4 mb 0.00 in0.0 mm 0.00 in0.0 mm 0.00 in0.0 mm
11:04 PM 38.1°F3.4°C 25.0°F-3.9°C 59% 0.9 mph SE1.4 kmh SE 1.1 mph1.8 kmh 29.67 in1004.7 mb 0.00 in0.0 mm 0.00 in0.0 mm 0.00 in0.0 mm
11:09 PM 38.3°F3.5°C 25.2°F-3.8°C 59% 0.7 mph SE1.1 kmh SE 1.1 mph1.8 kmh 29.66 in1004.4 mb 0.00 in0.0 mm 0.00 in0.0 mm 0.00 in0.0 mm
11:14 PM 38.1°F3.4°C 24.6°F-4.1°C 58% 2.2 mph SSE3.5 kmh SSE 2.2 mph3.5 kmh 29.67 in1004.7 mb 0.00 in0.0 mm 0.00 in0.0 mm 0.00 in0.0 mm
11:19 PM 38.7°F3.7°C 25.2°F-3.8°C 58% Calm Calm -- 29.66 in1004.4 mb 0.00 in0.0 mm 0.00 in0.0 mm 0.00 in0.0 mm
11:24 PM 38.3°F3.5°C 25.2°F-3.8°C 59% Calm Calm -- 29.67 in1004.7 mb 0.00 in0.0 mm 0.00 in0.0 mm 0.00 in0.0 mm
11:29 PM 37.6°F3.1°C 25.0°F-3.9°C 60% Calm Calm -- 29.67 in1004.7 mb 0.00 in0.0 mm 0.00 in0.0 mm 0.00 in0.0 mm
11:34 PM 36.5°F2.5°C 24.6°F-4.1°C 62% Calm Calm -- 29.67 in1004.7 mb 0.00 in0.0 mm 0.00 in0.0 mm 0.00 in0.0 mm
11:39 PM 35.6°F2.0°C 24.6°F-4.1°C 64% Calm Calm -- 29.67 in1004.7 mb 0.00 in0.0 mm 0.00 in0.0 mm 0.00 in0.0 mm
11:44 PM 35.6°F2.0°C 25.0°F-3.9°C 65% Calm Calm -- 29.66 in1004.4 mb 0.00 in0.0 mm 0.00 in0.0 mm 0.00 in0.0 mm
11:49 PM 35.6°F2.0°C 24.6°F-4.1°C 64% 0.4 mph SSE0.6 kmh SSE 1.1 mph1.8 kmh 29.66 in1004.4 mb 0.00 in0.0 mm 0.00 in0.0 mm 0.00 in0.0 mm
11:54 PM 35.8°F2.1°C 24.8°F-4.0°C 64% Calm Calm -- 29.66 in1004.4 mb 0.00 in0.0 mm 0.00 in0.0 mm 0.00 in0.0 mm